Time;durP1;ratioP1;P1;durP2;ratioP2;P2;SDS_P1;SDS_P2;PMS_P1;PMS_P2;Temp;Humidity;BMP_temperature;BMP_pressure;BME280_temperature;BME280_humidity;BME280_pressure;Samples;Min_cycle;Max_cycle;Signal;HPM_P1;HPM_P2
2021/11/22 00:02:21;;;;;;;1.52;1.40;;;10.10;59.90;;;;;;4901768;29;20064;-79
2021/11/22 00:04:47;;;;;;;1.42;1.30;;;10.10;59.90;;;;;;4893967;29;20036;-79
2021/11/22 00:07:15;;;;;;;1.33;1.23;;;10.10;59.90;;;;;;4899844;29;20059;-79
2021/11/22 00:09:41;;;;;;;2.70;1.40;;;10.10;59.90;;;;;;4917213;29;20118;-79
2021/11/22 00:12:07;;;;;;;1.35;1.20;;;10.10;59.90;;;;;;4902071;29;20124;-79
2021/11/22 00:14:34;;;;;;;1.20;1.10;;;10.10;59.90;;;;;;4901778;29;20045;-79
2021/11/22 00:17:00;;;;;;;1.42;1.30;;;10.10;59.90;;;;;;4902421;29;20557;-79
2021/11/22 00:19:26;;;;;;;1.90;1.80;;;10.10;59.70;;;;;;4902105;29;20083;-79
2021/11/22 00:21:52;;;;;;;2.42;1.20;;;10.10;59.70;;;;;;4901802;29;20044;-78
2021/11/22 00:24:18;;;;;;;1.48;1.38;;;10.10;59.60;;;;;;4901163;29;20095;-79
2021/11/22 00:26:44;;;;;;;1.50;1.30;;;10.10;59.60;;;;;;4902559;29;20029;-78
2021/11/22 00:29:10;;;;;;;1.45;1.10;;;10.00;59.60;;;;;;4902353;29;20155;-76
2021/11/22 00:31:51;;;;;;;2.10;1.15;;;10.10;59.60;;;;;;4915242;29;20795;-78
2021/11/22 00:34:28;;;;;;;1.20;1.10;;;10.00;59.40;;;;;;4915502;29;20035;-78
2021/11/22 00:37:01;;;;;;;1.15;1.05;;;10.00;59.40;;;;;;4893509;29;20032;-78
2021/11/22 00:39:27;;;;;;;1.50;1.40;;;10.00;59.40;;;;;;4901302;29;20502;-79
2021/11/22 00:41:54;;;;;;;1.33;1.23;;;10.00;59.40;;;;;;4901196;29;20100;-79
2021/11/22 00:44:20;;;;;;;1.00;1.00;;;10.00;59.20;;;;;;4901750;29;20032;-79
2021/11/22 00:46:46;;;;;;;1.27;0.93;;;10.00;59.20;;;;;;4884496;29;20415;-76
2021/11/22 00:49:12;;;;;;;2.47;1.08;;;10.00;59.30;;;;;;4900626;29;20124;-79
2021/11/22 00:51:37;;;;;;;1.73;0.90;;;10.00;59.20;;;;;;4900802;29;20499;-76
2021/11/22 00:54:03;;;;;;;1.05;1.05;;;10.00;59.30;;;;;;4903171;29;20032;-79
2021/11/22 00:56:29;;;;;;;1.20;1.10;;;10.00;59.10;;;;;;4901228;29;20045;-77
2021/11/22 00:58:55;;;;;;;1.83;1.30;;;10.00;59.20;;;;;;4900429;29;20033;-77
2021/11/22 01:01:21;;;;;;;1.40;1.30;;;10.00;59.20;;;;;;4901364;29;20032;-77
2021/11/22 01:03:47;;;;;;;1.40;1.30;;;10.00;59.20;;;;;;4900935;29;20403;-77
2021/11/22 01:06:13;;;;;;;1.48;1.38;;;10.00;59.10;;;;;;4900147;29;20036;-77
2021/11/22 01:08:39;;;;;;;1.92;1.35;;;10.00;59.10;;;;;;4900931;29;20032;-77
2021/11/22 01:11:05;;;;;;;1.45;1.33;;;10.00;59.20;;;;;;4901413;29;20115;-77
2021/11/22 01:13:31;;;;;;;1.63;1.30;;;10.00;59.00;;;;;;4901229;29;20127;-77
2021/11/22 01:15:57;;;;;;;1.45;1.35;;;9.90;59.10;;;;;;4899691;29;20492;-77
2021/11/22 01:18:23;;;;;;;1.83;1.50;;;9.90;59.10;;;;;;4901566;29;20036;-77
2021/11/22 01:20:49;;;;;;;1.42;1.33;;;9.90;59.10;;;;;;4901475;29;20032;-77
2021/11/22 01:23:15;;;;;;;2.42;1.40;;;9.90;59.00;;;;;;4900118;29;20032;-77
2021/11/22 01:25:43;;;;;;;2.08;1.50;;;9.90;58.90;;;;;;4900821;29;20091;-78
2021/11/22 01:28:10;;;;;;;1.40;1.30;;;9.90;58.80;;;;;;4900908;29;20044;-77
2021/11/22 01:30:36;;;;;;;1.60;1.50;;;9.90;58.70;;;;;;4915047;29;20057;-79
2021/11/22 01:33:02;;;;;;;1.40;1.20;;;9.90;58.60;;;;;;4899277;29;20508;-78
2021/11/22 01:35:28;;;;;;;1.33;1.23;;;9.90;58.40;;;;;;4901009;29;20075;-77
2021/11/22 01:37:54;;;;;;;1.38;1.27;;;9.90;58.40;;;;;;4900163;29;20415;-77
2021/11/22 01:40:23;;;;;;;1.75;1.30;;;9.90;58.20;;;;;;4899795;29;20072;-77
2021/11/22 01:42:50;;;;;;;1.30;1.20;;;9.90;58.10;;;;;;4900605;29;20040;-77
2021/11/22 01:45:19;;;;;;;1.40;1.30;;;9.90;58.10;;;;;;4914242;29;20132;-77
2021/11/22 01:47:46;;;;;;;1.40;1.30;;;9.90;58.10;;;;;;4899367;29;20053;-77
2021/11/22 01:50:23;;;;;;;1.42;1.30;;;9.90;58.10;;;;;;4899235;29;20116;-77
2021/11/22 01:52:51;;;;;;;1.40;1.20;;;9.90;58.00;;;;;;4900895;29;20044;-77
2021/11/22 01:55:19;;;;;;;1.58;1.40;;;9.90;58.10;;;;;;4891631;29;20036;-77
2021/11/22 01:57:47;;;;;;;1.50;1.10;;;9.90;58.10;;;;;;4899565;29;20036;-77
2021/11/22 02:00:36;;;;;;;1.63;1.17;;;9.90;58.10;;;;;;4899323;29;20292;-77
2021/11/22 02:03:04;;;;;;;2.22;1.40;;;9.90;58.00;;;;;;4895724;29;20054;-78
2021/11/22 02:05:30;;;;;;;1.75;1.38;;;9.90;57.80;;;;;;4899126;29;20044;-77
2021/11/22 02:07:56;;;;;;;1.30;1.20;;;9.90;57.80;;;;;;4899946;29;20040;-77
2021/11/22 02:10:24;;;;;;;1.30;1.20;;;9.90;57.80;;;;;;4902234;29;20043;-77
2021/11/22 02:12:50;;;;;;;1.35;1.25;;;9.90;57.80;;;;;;4899673;29;20081;-77
2021/11/22 02:15:17;;;;;;;1.45;1.35;;;9.90;57.90;;;;;;4898664;29;20472;-77
2021/11/22 02:17:44;;;;;;;3.90;1.50;;;9.90;57.80;;;;;;4913237;29;20039;-77
2021/11/22 02:20:13;;;;;;;1.88;1.40;;;9.90;58.00;;;;;;4900277;29;20036;-77
2021/11/22 02:22:40;;;;;;;1.63;1.20;;;9.80;58.00;;;;;;4902405;29;20043;-77
2021/11/22 02:25:10;;;;;;;1.10;1.10;;;9.80;57.80;;;;;;4904461;29;20036;-77
2021/11/22 02:27:38;;;;;;;1.48;1.38;;;9.80;57.90;;;;;;4904025;29;20033;-77
2021/11/22 02:30:10;;;;;;;1.63;1.52;;;9.80;57.90;;;;;;4903052;29;20377;-78
2021/11/22 02:32:37;;;;;;;1.55;1.38;;;9.80;58.00;;;;;;4902276;29;20506;-78
2021/11/22 02:35:06;;;;;;;1.15;1.08;;;9.80;58.10;;;;;;4903159;29;20069;-78
2021/11/22 02:37:32;;;;;;;1.30;1.20;;;9.80;58.40;;;;;;4894493;29;20127;-78
2021/11/22 02:39:57;;;;;;;1.20;1.10;;;9.90;58.60;;;;;;4902775;29;20131;-78
2021/11/22 02:42:29;;;;;;;2.55;1.25;;;9.90;59.20;;;;;;4902632;29;20044;-77
2021/11/22 02:44:57;;;;;;;1.30;1.20;;;9.90;58.80;;;;;;4918767;29;20025;-77
2021/11/22 02:47:23;;;;;;;1.30;1.20;;;9.80;58.70;;;;;;4902482;29;20398;-77
2021/11/22 02:49:49;;;;;;;1.48;1.38;;;9.80;58.70;;;;;;4905297;29;20619;-78
2021/11/22 02:52:16;;;;;;;1.25;1.15;;;9.80;58.70;;;;;;4902594;29;20060;-77
2021/11/22 02:54:43;;;;;;;1.35;1.25;;;9.90;58.90;;;;;;4902707;29;20047;-78
2021/11/22 02:57:10;;;;;;;2.20;1.40;;;9.80;58.90;;;;;;4905437;29;20088;-78
2021/11/22 02:59:40;;;;;;;1.83;1.20;;;9.90;59.00;;;;;;4903054;29;20048;-78
2021/11/22 03:02:12;;;;;;;1.45;1.35;;;9.80;59.00;;;;;;4902943;29;20040;-77
2021/11/22 03:04:41;;;;;;;1.98;1.48;;;9.80;59.00;;;;;;4902943;29;20048;-77
2021/11/22 03:07:07;;;;;;;1.70;1.40;;;9.80;58.90;;;;;;4901665;29;20036;-78
2021/11/22 03:09:33;;;;;;;2.13;1.33;;;9.80;59.00;;;;;;4903203;29;20048;-78
2021/11/22 03:12:01;;;;;;;2.42;1.40;;;9.80;59.10;;;;;;4895870;29;20044;-77
2021/11/22 03:14:28;;;;;;;2.35;1.50;;;9.80;59.20;;;;;;4902949;29;20390;-78
2021/11/22 03:16:55;;;;;;;1.23;1.13;;;9.80;59.30;;;;;;4900674;29;20037;-78
2021/11/22 03:19:21;;;;;;;1.27;1.17;;;9.80;59.40;;;;;;4917788;29;20503;-78
2021/11/22 03:21:48;;;;;;;1.58;1.48;;;9.90;59.30;;;;;;4903073;29;20110;-79
2021/11/22 03:24:14;;;;;;;1.80;1.50;;;9.80;59.20;;;;;;4902596;29;20041;-78
2021/11/22 03:26:41;;;;;;;1.20;1.10;;;9.80;59.20;;;;;;4904165;29;20032;-79
2021/11/22 03:29:07;;;;;;;1.35;1.25;;;9.80;59.20;;;;;;4901950;29;20235;-79
2021/11/22 03:31:34;;;;;;;1.85;1.52;;;9.80;59.30;;;;;;4901732;29;20151;-79
2021/11/22 03:34:01;;;;;;;1.45;1.33;;;9.80;59.30;;;;;;4903225;29;20435;-79
2021/11/22 03:36:29;;;;;;;1.42;1.10;;;9.90;59.20;;;;;;4901856;29;20063;-79
2021/11/22 03:38:54;;;;;;;1.90;1.35;;;9.80;59.00;;;;;;4902315;29;20036;-78
2021/11/22 03:41:21;;;;;;;1.20;1.10;;;9.80;59.00;;;;;;4903070;29;20535;-77
2021/11/22 03:43:50;;;;;;;1.25;1.05;;;9.80;59.70;;;;;;4901852;29;20061;-75
2021/11/22 03:46:17;;;;;;;1.00;0.95;;;9.80;59.30;;;;;;4903632;29;20504;-76
2021/11/22 03:48:44;;;;;;;1.17;1.00;;;9.80;59.40;;;;;;4902520;29;20040;-77
2021/11/22 03:51:10;;;;;;;1.95;1.13;;;9.90;59.50;;;;;;4901711;29;20840;-78
2021/11/22 03:53:37;;;;;;;2.22;1.17;;;9.90;59.40;;;;;;4909741;29;20128;-77
2021/11/22 03:56:03;;;;;;;1.23;1.13;;;9.90;59.30;;;;;;4900322;29;20036;-77
2021/11/22 03:58:29;;;;;;;1.02;0.98;;;9.90;59.30;;;;;;4903004;29;20059;-78
2021/11/22 04:00:55;;;;;;;1.23;1.13;;;9.90;59.20;;;;;;4900901;29;20119;-78
2021/11/22 04:03:21;;;;;;;1.30;0.80;;;9.90;59.30;;;;;;4902616;29;20068;-77
2021/11/22 04:05:48;;;;;;;1.30;1.00;;;9.90;59.40;;;;;;4900569;29;20459;-77
2021/11/22 04:08:16;;;;;;;1.50;1.40;;;9.90;59.90;;;;;;4888382;29;20272;-77
2021/11/22 04:10:42;;;;;;;1.10;1.00;;;9.90;59.20;;;;;;4889732;29;20039;-79
2021/11/22 04:13:09;;;;;;;1.35;1.10;;;9.90;59.20;;;;;;4891585;29;20079;-78
2021/11/22 04:15:36;;;;;;;1.77;1.15;;;9.90;59.20;;;;;;4892271;29;20092;-78
2021/11/22 04:18:03;;;;;;;1.40;1.30;;;9.90;59.20;;;;;;4895573;29;20043;-78
2021/11/22 04:20:29;;;;;;;1.20;1.10;;;9.90;59.30;;;;;;4895792;29;20646;-77
2021/11/22 04:22:55;;;;;;;1.23;1.17;;;9.90;59.20;;;;;;4897122;29;20388;-77
2021/11/22 04:25:21;;;;;;;1.60;1.20;;;9.90;59.20;;;;;;4882260;29;20570;-77
2021/11/22 04:27:48;;;;;;;1.60;1.50;;;9.90;59.30;;;;;;4901251;29;20075;-80
2021/11/22 04:30:15;;;;;;;1.30;1.20;;;10.00;59.30;;;;;;4899787;29;20048;-78
2021/11/22 04:32:42;;;;;;;1.50;1.40;;;9.90;59.30;;;;;;4903059;29;20055;-79
2021/11/22 04:35:11;;;;;;;1.25;1.15;;;9.90;59.40;;;;;;4901742;29;20036;-78
2021/11/22 04:37:37;;;;;;;1.40;1.30;;;9.90;59.80;;;;;;4901709;29;20095;-77
2021/11/22 04:40:06;;;;;;;1.20;1.10;;;10.00;60.20;;;;;;4901586;29;20044;-78
2021/11/22 04:42:32;;;;;;;2.65;1.08;;;10.00;60.00;;;;;;4899243;29;20047;-78
2021/11/22 04:44:58;;;;;;;1.23;1.13;;;10.00;59.90;;;;;;4901837;29;20322;-79
2021/11/22 04:47:25;;;;;;;2.35;1.70;;;10.00;59.70;;;;;;4902062;29;20695;-78
2021/11/22 04:49:51;;;;;;;1.38;1.27;;;10.00;59.70;;;;;;4900490;29;20472;-80
2021/11/22 04:52:18;;;;;;;2.95;1.35;;;10.00;59.90;;;;;;4900691;29;20119;-79
2021/11/22 04:54:44;;;;;;;1.77;1.17;;;10.00;60.00;;;;;;4896996;29;20036;-80
2021/11/22 04:57:10;;;;;;;1.55;1.38;;;10.10;60.50;;;;;;4901859;29;20040;-82
2021/11/22 04:59:37;;;;;;;1.25;1.15;;;10.00;60.70;;;;;;4914932;29;20032;-79
2021/11/22 05:02:05;;;;;;;2.28;1.00;;;10.00;60.60;;;;;;4900286;29;20563;-79
2021/11/22 05:04:30;;;;;;;1.40;1.13;;;10.10;61.00;;;;;;4916734;29;21060;-80
2021/11/22 05:06:56;;;;;;;1.42;1.00;;;10.10;60.00;;;;;;4901197;29;20036;-81
2021/11/22 05:09:23;;;;;;;1.42;1.08;;;10.10;59.90;;;;;;4912058;29;20456;-81
2021/11/22 05:11:50;;;;;;;1.15;1.05;;;10.10;59.70;;;;;;4917395;29;20139;-80
2021/11/22 05:14:17;;;;;;;1.40;1.30;;;10.10;59.40;;;;;;4901229;29;20037;-80
2021/11/22 05:16:44;;;;;;;1.95;1.20;;;10.10;59.20;;;;;;4896943;29;20075;-80
2021/11/22 05:19:11;;;;;;;1.42;1.33;;;10.10;59.30;;;;;;4898118;29;20045;-79
2021/11/22 05:21:37;;;;;;;1.35;1.10;;;10.10;59.30;;;;;;4897862;29;20132;-80
2021/11/22 05:24:04;;;;;;;1.30;1.20;;;10.00;59.00;;;;;;4896462;29;20072;-80
2021/11/22 05:26:31;;;;;;;1.88;1.38;;;10.00;59.00;;;;;;4901893;29;20262;-80
2021/11/22 05:28:58;;;;;;;1.00;0.98;;;10.00;58.80;;;;;;4892269;29;20024;-80
2021/11/22 05:31:24;;;;;;;1.42;1.25;;;10.00;58.70;;;;;;4883646;29;20146;-79
2021/11/22 05:33:53;;;;;;;2.22;1.42;;;10.00;58.50;;;;;;4899519;29;20992;-80
2021/11/22 05:36:19;;;;;;;1.38;1.00;;;10.00;58.70;;;;;;4891468;29;20494;-79
2021/11/22 05:38:46;;;;;;;2.00;1.20;;;10.00;58.80;;;;;;4915622;29;20036;-80
2021/11/22 05:41:13;;;;;;;1.40;1.15;;;10.00;58.70;;;;;;4914295;29;20131;-79
2021/11/22 05:43:39;;;;;;;1.70;1.30;;;10.00;58.70;;;;;;4900830;29;20040;-79
2021/11/22 05:46:07;;;;;;;1.30;1.20;;;10.00;58.60;;;;;;4891639;29;20497;-79
2021/11/22 05:48:33;;;;;;;1.73;1.20;;;10.00;58.50;;;;;;4900306;29;20051;-79
2021/11/22 05:51:00;;;;;;;2.03;1.50;;;10.00;58.30;;;;;;4897884;29;20036;-79
2021/11/22 05:53:33;;;;;;;1.90;1.17;;;10.00;58.30;;;;;;4900752;29;21448;-79
2021/11/22 05:56:03;;;;;;;1.50;0.98;;;10.00;58.30;;;;;;4898679;29;20046;-79
2021/11/22 05:58:31;;;;;;;1.48;0.98;;;10.00;58.30;;;;;;4898833;29;20127;-79
2021/11/22 06:01:03;;;;;;;1.67;1.20;;;10.00;58.40;;;;;;4899370;29;20043;-79
2021/11/22 06:03:30;;;;;;;1.77;1.17;;;10.00;58.70;;;;;;4899715;29;20047;-80
2021/11/22 06:05:56;;;;;;;1.92;1.30;;;10.00;59.20;;;;;;4898654;29;20115;-80
2021/11/22 06:08:22;;;;;;;1.23;0.95;;;10.00;59.70;;;;;;4899321;29;20036;-79
2021/11/22 06:10:49;;;;;;;1.40;0.85;;;10.10;61.10;;;;;;4899301;29;20040;-80
2021/11/22 06:13:16;;;;;;;0.90;0.90;;;10.10;62.20;;;;;;4913105;29;20047;-80
2021/11/22 06:15:43;;;;;;;2.55;1.05;;;10.10;62.90;;;;;;4900478;29;20036;-80
2021/11/22 06:18:10;;;;;;;1.83;0.80;;;10.20;63.40;;;;;;4897500;29;20111;-81
2021/11/22 06:20:37;;;;;;;1.75;0.75;;;10.30;64.10;;;;;;4881836;29;20431;-80
2021/11/22 06:23:04;;;;;;;3.05;1.00;;;10.30;64.60;;;;;;4899575;29;20087;-80
2021/11/22 06:25:30;;;;;;;2.53;0.70;;;10.30;65.00;;;;;;4891903;29;20037;-80
2021/11/22 06:27:56;;;;;;;1.60;1.00;;;10.40;65.10;;;;;;4898642;29;20468;-80
2021/11/22 06:30:22;;;;;;;2.67;1.23;;;10.40;65.30;;;;;;4892848;29;20165;-80
2021/11/22 06:32:49;;;;;;;2.10;1.00;;;10.50;65.50;;;;;;4894925;29;20049;-80
2021/11/22 06:35:17;;;;;;;2.65;0.90;;;10.50;65.30;;;;;;4898811;29;20062;-81
2021/11/22 06:37:44;;;;;;;1.23;1.00;;;10.60;64.70;;;;;;4888683;29;20044;-80
2021/11/22 06:40:10;;;;;;;1.02;0.82;;;10.60;64.10;;;;;;4896413;29;20041;-81
2021/11/22 06:42:37;;;;;;;0.80;0.80;;;10.60;63.50;;;;;;4896255;29;20039;-80
2021/11/22 06:45:05;;;;;;;1.00;0.52;;;10.60;62.90;;;;;;4881349;29;20033;-80
2021/11/22 06:47:31;;;;;;;7.40;1.02;;;10.60;62.50;;;;;;4898469;29;20165;-80
2021/11/22 06:49:57;;;;;;;0.90;0.70;;;10.70;62.30;;;;;;4899586;29;20039;-80
2021/11/22 06:52:23;;;;;;;0.70;0.47;;;10.70;62.20;;;;;;4899189;29;20047;-80
2021/11/22 06:54:50;;;;;;;0.98;0.60;;;10.70;61.90;;;;;;4895035;29;20037;-81
2021/11/22 06:57:17;;;;;;;1.77;0.82;;;10.70;61.70;;;;;;4888287;29;20530;-79
2021/11/22 06:59:43;;;;;;;1.65;0.80;;;10.70;61.60;;;;;;4899021;29;20402;-80
2021/11/22 07:02:14;;;;;;;1.38;0.60;;;10.70;61.20;;;;;;4898915;29;20037;-80
2021/11/22 07:04:40;;;;;;;0.55;0.55;;;10.80;61.30;;;;;;4897945;29;20037;-80
2021/11/22 07:07:07;;;;;;;1.85;0.60;;;10.80;61.50;;;;;;4918019;29;20041;-80
2021/11/22 07:09:33;;;;;;;0.95;0.57;;;10.90;61.60;;;;;;4901457;29;20037;-80
2021/11/22 07:11:59;;;;;;;1.20;0.77;;;10.90;61.60;;;;;;4900201;29;20039;-79
2021/11/22 07:14:24;;;;;;;2.40;0.65;;;10.90;61.50;;;;;;4896946;29;20405;-80
2021/11/22 07:16:52;;;;;;;0.73;0.60;;;11.00;61.60;;;;;;4897389;29;20516;-80
2021/11/22 07:19:18;;;;;;;0.93;0.80;;;11.10;61.60;;;;;;4901388;29;20076;-80
2021/11/22 07:21:44;;;;;;;0.75;0.65;;;11.00;61.50;;;;;;4901777;29;20511;-80
2021/11/22 07:24:10;;;;;;;1.48;0.60;;;11.10;61.40;;;;;;4900260;29;21314;-80
2021/11/22 07:26:36;;;;;;;0.82;0.68;;;11.10;61.30;;;;;;4905431;29;20508;-80
2021/11/22 07:29:03;;;;;;;0.70;0.50;;;11.20;61.40;;;;;;4885772;29;20116;-80
2021/11/22 07:31:30;;;;;;;1.95;0.80;;;11.20;61.40;;;;;;4902510;29;20091;-81
2021/11/22 07:33:56;;;;;;;0.70;0.65;;;11.20;61.40;;;;;;4901265;29;20044;-80
2021/11/22 07:36:22;;;;;;;0.80;0.75;;;11.20;61.60;;;;;;4903479;29;20119;-80
2021/11/22 07:38:49;;;;;;;0.93;0.57;;;11.20;61.50;;;;;;4902947;29;20035;-79
2021/11/22 07:41:16;;;;;;;1.33;0.80;;;11.20;61.50;;;;;;4886215;29;20076;-79
2021/11/22 07:43:41;;;;;;;2.05;0.70;;;11.20;61.40;;;;;;4903357;29;20103;-79
2021/11/22 07:46:08;;;;;;;1.83;0.80;;;11.20;61.00;;;;;;4901302;29;20047;-80
2021/11/22 07:48:34;;;;;;;1.35;0.60;;;11.20;60.60;;;;;;4902168;29;20041;-78
2021/11/22 07:51:02;;;;;;;1.67;0.70;;;11.20;60.60;;;;;;4900366;29;20033;-79
2021/11/22 07:53:29;;;;;;;0.70;0.60;;;11.20;60.80;;;;;;4917155;29;20036;-79
2021/11/22 07:55:55;;;;;;;0.60;0.60;;;11.30;61.50;;;;;;4901159;29;20511;-80
2021/11/22 07:58:21;;;;;;;1.17;0.50;;;11.30;61.80;;;;;;4902554;29;20040;-80
2021/11/22 08:00:47;;;;;;;1.60;0.50;;;11.30;61.90;;;;;;4901832;29;20087;-78
2021/11/22 08:03:13;;;;;;;1.52;0.55;;;11.40;62.10;;;;;;4900910;29;20173;-79
2021/11/22 08:05:39;;;;;;;1.80;0.70;;;11.40;62.20;;;;;;4902608;29;20048;-80
2021/11/22 08:08:05;;;;;;;0.93;0.70;;;11.40;62.30;;;;;;4899606;29;20048;-79
2021/11/22 08:10:33;;;;;;;0.93;0.65;;;11.40;62.20;;;;;;4898844;29;20037;-79
2021/11/22 08:13:02;;;;;;;0.57;0.57;;;11.40;62.20;;;;;;4901203;29;20045;-80
2021/11/22 08:15:32;;;;;;;1.35;0.68;;;11.40;61.90;;;;;;4899001;29;20036;-80
2021/11/22 08:18:01;;;;;;;0.70;0.60;;;11.50;61.50;;;;;;4900709;29;20063;-80
2021/11/22 08:20:27;;;;;;;0.65;0.50;;;11.50;61.10;;;;;;4893427;29;20045;-80
2021/11/22 08:22:53;;;;;;;1.45;0.60;;;11.50;62.20;;;;;;4900473;29;20032;-81
2021/11/22 08:25:22;;;;;;;0.68;0.68;;;11.50;63.10;;;;;;4900958;29;20139;-82
2021/11/22 08:27:49;;;;;;;2.80;0.70;;;11.50;62.40;;;;;;4906764;29;20033;-80
2021/11/22 08:30:17;;;;;;;1.23;0.75;;;11.60;60.00;;;;;;4900277;29;20052;-81
2021/11/22 08:32:45;;;;;;;4.88;2.83;;;11.50;58.70;;;;;;4884219;29;20079;-81
2021/11/22 08:35:12;;;;;;;5.60;2.70;;;11.50;57.60;;;;;;4899318;29;20041;-83
2021/11/22 08:37:40;;;;;;;2.78;1.17;;;11.50;57.60;;;;;;4895965;29;20044;-81
2021/11/22 08:40:11;;;;;;;1.38;1.15;;;11.50;57.60;;;;;;4889160;29;20555;-81
2021/11/22 08:42:37;;;;;;;1.30;0.80;;;11.50;57.20;;;;;;4911817;29;20138;-81
2021/11/22 08:45:04;;;;;;;2.08;1.02;;;11.50;57.60;;;;;;4883000;29;20099;-82
2021/11/22 08:47:30;;;;;;;1.02;0.68;;;11.50;57.50;;;;;;4900119;29;20036;-82
2021/11/22 08:49:56;;;;;;;1.95;1.17;;;11.50;57.30;;;;;;4901621;29;20039;-82
2021/11/22 08:52:23;;;;;;;1.38;0.68;;;11.50;56.80;;;;;;4901687;29;20060;-82
2021/11/22 08:54:50;;;;;;;2.83;1.00;;;11.50;56.90;;;;;;4884831;29;20040;-82
2021/11/22 08:57:17;;;;;;;1.02;0.80;;;11.50;57.60;;;;;;4902047;29;20412;-81
2021/11/22 08:59:44;;;;;;;1.10;0.82;;;11.50;57.20;;;;;;4899930;29;20055;-81
2021/11/22 09:02:10;;;;;;;0.95;0.75;;;11.50;56.30;;;;;;4900712;29;20119;-81
2021/11/22 09:04:37;;;;;;;1.63;0.68;;;11.50;56.20;;;;;;4884708;29;20032;-81
2021/11/22 09:07:03;;;;;;;2.22;0.73;;;11.50;55.90;;;;;;4901559;29;20047;-81
2021/11/22 09:09:29;;;;;;;1.05;0.70;;;11.50;55.60;;;;;;4901279;29;20040;-81
2021/11/22 09:11:56;;;;;;;1.67;0.68;;;11.40;55.40;;;;;;4901021;29;20039;-82
2021/11/22 09:14:21;;;;;;;1.30;0.90;;;11.40;55.40;;;;;;4901880;29;20039;-82
2021/11/22 09:16:48;;;;;;;2.50;1.00;;;11.40;55.60;;;;;;4900951;29;20043;-82
2021/11/22 09:19:15;;;;;;;1.55;0.88;;;11.50;56.10;;;;;;4915526;29;20711;-82
2021/11/22 09:21:42;;;;;;;0.80;0.60;;;11.50;55.60;;;;;;4898092;29;20036;-83
2021/11/22 09:24:08;;;;;;;3.15;0.65;;;11.40;55.10;;;;;;4914698;29;20098;-83
2021/11/22 09:26:35;;;;;;;1.75;0.85;;;11.40;55.10;;;;;;4892523;29;20115;-83
2021/11/22 09:29:02;;;;;;;1.10;0.88;;;11.40;55.50;;;;;;4882491;29;20134;-82
2021/11/22 09:31:28;;;;;;;2.45;0.85;;;11.50;55.80;;;;;;4913071;29;20469;-83
2021/11/22 09:33:54;;;;;;;1.33;0.70;;;11.50;55.70;;;;;;4892311;29;20385;-82
2021/11/22 09:36:22;;;;;;;2.33;0.90;;;11.40;55.70;;;;;;4885006;29;20134;-81
2021/11/22 09:38:49;;;;;;;0.98;0.73;;;11.40;55.80;;;;;;4899472;29;20518;-82
2021/11/22 09:41:16;;;;;;;1.17;0.90;;;11.40;55.90;;;;;;4900722;29;20430;-82
2021/11/22 09:43:44;;;;;;;1.73;0.90;;;11.50;55.90;;;;;;4900841;29;20028;-81
2021/11/22 09:46:11;;;;;;;1.00;0.80;;;11.40;55.70;;;;;;4899455;29;20036;-82
2021/11/22 09:48:38;;;;;;;2.03;0.80;;;11.40;55.60;;;;;;4900609;29;20043;-83
2021/11/22 09:51:04;;;;;;;2.45;0.95;;;11.40;55.50;;;;;;4900014;29;20384;-82
2021/11/22 09:53:30;;;;;;;2.05;1.15;;;11.30;55.50;;;;;;4914252;29;20036;-81
2021/11/22 09:55:56;;;;;;;0.90;0.80;;;11.30;55.30;;;;;;4900030;29;20400;-82
2021/11/22 09:58:22;;;;;;;1.00;0.80;;;11.30;55.10;;;;;;4900799;29;20455;-81
2021/11/22 10:00:52;;;;;;;1.65;0.95;;;11.30;54.90;;;;;;4899354;29;20068;-81
2021/11/22 10:03:23;;;;;;;1.38;0.70;;;11.30;55.00;;;;;;4900597;29;20399;-81
2021/11/22 10:05:57;;;;;;;0.75;0.60;;;11.30;55.00;;;;;;4898512;29;20112;-81
2021/11/22 10:08:24;;;;;;;3.25;0.80;;;11.30;55.00;;;;;;4899507;29;20036;-81
2021/11/22 10:11:00;;;;;;;1.10;0.90;;;11.30;55.00;;;;;;4898787;29;20123;-82
2021/11/22 10:13:32;;;;;;;4.28;0.80;;;11.40;55.20;;;;;;4901013;29;20028;-80
2021/11/22 10:16:22;;;;;;;0.77;0.60;;;11.30;55.20;;;;;;4901556;29;20503;-83
2021/11/22 10:18:53;;;;;;;2.40;0.82;;;11.30;54.50;;;;;;4875016;29;20521;-82
2021/11/22 10:21:22;;;;;;;1.60;0.60;;;11.30;54.20;;;;;;4898716;29;20040;-82
2021/11/22 10:23:50;;;;;;;1.02;0.73;;;11.30;54.10;;;;;;4891531;29;20044;-82
2021/11/22 10:26:17;;;;;;;0.70;0.55;;;11.40;54.60;;;;;;4899716;29;20327;-82
2021/11/22 10:28:53;;;;;;;0.70;0.63;;;11.40;55.50;;;;;;4900287;29;20029;-82
2021/11/22 10:31:26;;;;;;;0.40;0.40;;;11.40;55.70;;;;;;4899297;29;20056;-83
2021/11/22 10:33:53;;;;;;;0.75;0.50;;;11.40;55.40;;;;;;4891205;29;20096;-83
2021/11/22 10:36:23;;;;;;;2.42;0.65;;;11.50;54.90;;;;;;4898720;29;20036;-83
2021/11/22 10:38:56;;;;;;;2.42;0.63;;;11.50;54.10;;;;;;4890664;29;20033;-80
2021/11/22 10:41:32;;;;;;;1.70;0.60;;;11.50;53.90;;;;;;4900738;29;20135;-82
2021/11/22 10:44:04;;;;;;;1.15;0.75;;;11.50;54.60;;;;;;4902918;29;20032;-82
2021/11/22 10:46:46;;;;;;;1.20;0.52;;;11.50;55.70;;;;;;4902309;29;20044;-82
2021/11/22 10:49:34;;;;;;;3.03;0.63;;;11.60;55.00;;;;;;4917913;29;20048;-82
2021/11/22 10:52:27;;;;;;;0.90;0.65;;;11.60;54.40;;;;;;4897109;29;20032;-83
2021/11/22 10:54:57;;;;;;;0.50;0.50;;;11.60;54.50;;;;;;4902443;29;20037;-80
2021/11/22 10:57:32;;;;;;;1.50;0.60;;;11.60;54.50;;;;;;4900290;29;20538;-83
2021/11/22 10:59:58;;;;;;;1.35;0.70;;;11.60;54.40;;;;;;4914275;29;20451;-83
2021/11/22 11:02:41;;;;;;;1.35;0.68;;;11.60;54.20;;;;;;4886960;29;20042;-83
2021/11/22 11:05:07;;;;;;;0.60;0.60;;;11.60;53.70;;;;;;4917517;29;20582;-83
2021/11/22 11:07:33;;;;;;;1.85;1.10;;;11.60;53.30;;;;;;4915920;29;20496;-81
2021/11/22 11:10:00;;;;;;;0.95;0.65;;;11.60;53.30;;;;;;4901559;29;20043;-83
2021/11/22 11:12:26;;;;;;;0.65;0.55;;;11.60;53.40;;;;;;4894094;29;20048;-83
2021/11/22 11:14:56;;;;;;;1.85;0.75;;;11.60;53.40;;;;;;4905221;29;20036;-83
2021/11/22 11:17:28;;;;;;;0.98;0.82;;;11.60;53.10;;;;;;4887319;29;20036;-83
2021/11/22 11:19:57;;;;;;;10.57;0.85;;;11.50;53.00;;;;;;4885829;29;20467;-83
2021/11/22 11:22:25;;;;;;;0.80;0.80;;;11.50;53.40;;;;;;4916839;29;20107;-86
2021/11/22 11:24:51;;;;;;;2.20;0.70;;;11.60;53.70;;;;;;4908254;29;20089;-85
2021/11/22 11:27:17;;;;;;;0.65;0.65;;;11.60;53.40;;;;;;4885798;29;20035;-85
2021/11/22 11:29:44;;;;;;;1.70;0.70;;;11.60;53.40;;;;;;4903413;29;20043;-84
2021/11/22 11:32:11;;;;;;;3.00;0.85;;;11.60;53.50;;;;;;4885968;29;20479;-85
2021/11/22 11:34:43;;;;;;;0.90;0.70;;;11.50;53.30;;;;;;4887044;29;20130;-84
2021/11/22 11:37:48;;;;;;;1.55;0.75;;;11.50;53.10;;;;;;4896499;29;20696;-84
2021/11/22 11:40:44;;;;;;;2.28;0.63;;;11.50;52.80;;;;;;4901502;29;20048;-83
2021/11/22 11:43:16;;;;;;;;;;;11.50;52.70;;;;;;4902133;29;20526;-83
2021/11/22 11:45:54;;;;;;;3.40;0.85;;;11.50;53.20;;;;;;4900563;29;20009;-82
2021/11/22 11:48:34;;;;;;;0.82;0.70;;;11.50;53.10;;;;;;4901749;29;20451;-82
2021/11/22 11:51:15;;;;;;;1.48;0.80;;;11.40;52.80;;;;;;4917272;29;20044;-84
2021/11/22 11:54:00;;;;;;;2.53;0.98;;;11.40;52.80;;;;;;4902673;29;20068;-84
2021/11/22 11:56:38;;;;;;;0.80;0.45;;;11.50;53.10;;;;;;4906160;29;20043;-85
2021/11/22 11:59:27;;;;;;;0.65;0.50;;;11.50;54.00;;;;;;4906716;29;20032;-86
2021/11/22 12:02:07;;;;;;;1.30;0.65;;;11.50;55.00;;;;;;4908862;29;20077;-85
2021/11/22 12:04:57;;;;;;;0.77;0.60;;;11.50;55.50;;;;;;4901820;29;20036;-85
2021/11/22 12:07:48;;;;;;;1.65;0.75;;;11.50;54.80;;;;;;4894838;29;20044;-86
2021/11/22 12:10:20;;;;;;;1.75;0.70;;;11.50;54.10;;;;;;4902600;29;20032;-85
2021/11/22 12:12:58;;;;;;;1.85;0.90;;;11.50;53.40;;;;;;4901850;29;20470;-82
2021/11/22 12:15:31;;;;;;;0.90;0.50;;;11.50;52.80;;;;;;4902475;29;20456;-84
2021/11/22 12:18:27;;;;;;;1.48;0.60;;;11.50;52.90;;;;;;4902488;29;20043;-84
2021/11/22 12:20:55;;;;;;;;;;;11.50;52.80;;;;;;4897985;29;20036;-83
2021/11/22 12:23:27;;;;;;;1.38;0.68;;;11.40;52.50;;;;;;4901288;29;20363;-84
2021/11/22 12:25:58;;;;;;;0.70;0.70;;;11.40;52.30;;;;;;4901191;29;20388;-84
2021/11/22 12:28:26;;;;;;;3.13;0.68;;;11.40;52.10;;;;;;4900656;29;20043;-84
2021/11/22 12:31:05;;;;;;;3.47;0.98;;;11.30;52.00;;;;;;4901673;29;20112;-85
2021/11/22 12:33:40;;;;;;;2.55;0.57;;;11.30;52.00;;;;;;4900399;29;20451;-84
2021/11/22 12:36:27;;;;;;;2.13;1.05;;;11.20;51.90;;;;;;4907844;29;20039;-84
2021/11/22 12:39:00;;;;;;;4.05;1.15;;;11.20;52.50;;;;;;4900977;29;20037;-84
2021/11/22 12:41:31;;;;;;;3.40;0.90;;;11.10;53.30;;;;;;4900705;29;20032;-83
2021/11/22 12:44:00;;;;;;;4.55;1.15;;;11.10;54.50;;;;;;4898901;29;20095;-83
2021/11/22 12:46:35;;;;;;;2.38;0.90;;;11.10;55.20;;;;;;4916138;29;20031;-84
2021/11/22 12:49:22;;;;;;;3.70;0.88;;;11.10;55.60;;;;;;4900567;29;20044;-83
2021/11/22 12:51:50;;;;;;;4.75;1.00;;;11.10;55.60;;;;;;4897576;29;20599;-83
2021/11/22 12:54:18;;;;;;;3.50;0.98;;;11.10;55.60;;;;;;4899671;29;20036;-83
2021/11/22 12:56:45;;;;;;;2.78;1.00;;;11.10;55.30;;;;;;4896675;29;20490;-83
2021/11/22 12:59:18;;;;;;;3.70;1.08;;;11.10;55.20;;;;;;4899773;29;20038;-83